sensor_id;sensor_type;location;lat;lon;timestamp;P1;durP1;ratioP1;P2;durP2;ratioP2
4268;SDS011;2148;48.554;7.834;2023-11-21T00:00:46;6.13;;;3.00;;
4268;SDS011;2148;48.554;7.834;2023-11-21T00:03:12;8.13;;;3.40;;
4268;SDS011;2148;48.554;7.834;2023-11-21T00:05:40;5.00;;;2.37;;
4268;SDS011;2148;48.554;7.834;2023-11-21T00:08:06;5.17;;;2.40;;
4268;SDS011;2148;48.554;7.834;2023-11-21T00:10:31;6.47;;;2.83;;
4268;SDS011;2148;48.554;7.834;2023-11-21T00:12:57;7.60;;;2.53;;
4268;SDS011;2148;48.554;7.834;2023-11-21T00:15:22;6.87;;;3.10;;
4268;SDS011;2148;48.554;7.834;2023-11-21T00:17:47;4.30;;;2.67;;
4268;SDS011;2148;48.554;7.834;2023-11-21T00:20:12;5.60;;;3.10;;
4268;SDS011;2148;48.554;7.834;2023-11-21T00:22:38;6.50;;;2.90;;
4268;SDS011;2148;48.554;7.834;2023-11-21T00:25:03;4.83;;;2.37;;
4268;SDS011;2148;48.554;7.834;2023-11-21T00:27:29;4.77;;;2.70;;
4268;SDS011;2148;48.554;7.834;2023-11-21T00:29:55;9.23;;;2.93;;
4268;SDS011;2148;48.554;7.834;2023-11-21T00:32:20;4.00;;;2.30;;
4268;SDS011;2148;48.554;7.834;2023-11-21T00:34:45;6.83;;;2.60;;
4268;SDS011;2148;48.554;7.834;2023-11-21T00:37:10;5.50;;;2.50;;
4268;SDS011;2148;48.554;7.834;2023-11-21T00:39:36;5.67;;;2.30;;
4268;SDS011;2148;48.554;7.834;2023-11-21T00:42:01;4.53;;;2.27;;
4268;SDS011;2148;48.554;7.834;2023-11-21T00:44:26;6.47;;;2.30;;
4268;SDS011;2148;48.554;7.834;2023-11-21T00:46:51;3.00;;;2.30;;
4268;SDS011;2148;48.554;7.834;2023-11-21T00:49:17;4.43;;;2.93;;
4268;SDS011;2148;48.554;7.834;2023-11-21T00:51:42;7.30;;;2.30;;
4268;SDS011;2148;48.554;7.834;2023-11-21T00:54:07;8.40;;;2.60;;
4268;SDS011;2148;48.554;7.834;2023-11-21T00:56:32;6.80;;;3.10;;
4268;SDS011;2148;48.554;7.834;2023-11-21T00:58:59;1.97;;;1.77;;
4268;SDS011;2148;48.554;7.834;2023-11-21T01:01:24;5.03;;;2.10;;
4268;SDS011;2148;48.554;7.834;2023-11-21T01:03:49;4.43;;;2.30;;
4268;SDS011;2148;48.554;7.834;2023-11-21T01:06:15;5.17;;;2.93;;
4268;SDS011;2148;48.554;7.834;2023-11-21T01:08:41;5.67;;;2.40;;
4268;SDS011;2148;48.554;7.834;2023-11-21T01:11:06;4.47;;;2.10;;
4268;SDS011;2148;48.554;7.834;2023-11-21T01:13:37;2.37;;;2.17;;
4268;SDS011;2148;48.554;7.834;2023-11-21T01:16:02;3.37;;;2.47;;
4268;SDS011;2148;48.554;7.834;2023-11-21T01:18:28;2.53;;;2.20;;
4268;SDS011;2148;48.554;7.834;2023-11-21T01:20:54;4.50;;;2.70;;
4268;SDS011;2148;48.554;7.834;2023-11-21T01:23:19;3.53;;;2.20;;
4268;SDS011;2148;48.554;7.834;2023-11-21T01:25:45;6.33;;;2.00;;
4268;SDS011;2148;48.554;7.834;2023-11-21T01:28:10;4.27;;;2.10;;
4268;SDS011;2148;48.554;7.834;2023-11-21T01:30:35;5.30;;;2.40;;
4268;SDS011;2148;48.554;7.834;2023-11-21T01:33:00;3.83;;;2.30;;
4268;SDS011;2148;48.554;7.834;2023-11-21T01:35:26;4.40;;;2.20;;
4268;SDS011;2148;48.554;7.834;2023-11-21T01:37:51;3.53;;;2.10;;
4268;SDS011;2148;48.554;7.834;2023-11-21T01:40:16;3.37;;;2.17;;
4268;SDS011;2148;48.554;7.834;2023-11-21T01:42:42;3.07;;;2.00;;
4268;SDS011;2148;48.554;7.834;2023-11-21T01:45:08;5.13;;;2.33;;
4268;SDS011;2148;48.554;7.834;2023-11-21T01:47:34;5.50;;;2.33;;
4268;SDS011;2148;48.554;7.834;2023-11-21T01:50:01;3.07;;;2.40;;
4268;SDS011;2148;48.554;7.834;2023-11-21T01:52:26;3.53;;;2.27;;
4268;SDS011;2148;48.554;7.834;2023-11-21T01:54:52;5.80;;;2.30;;
4268;SDS011;2148;48.554;7.834;2023-11-21T01:57:18;3.63;;;2.30;;
4268;SDS011;2148;48.554;7.834;2023-11-21T01:59:45;6.90;;;2.33;;
4268;SDS011;2148;48.554;7.834;2023-11-21T02:02:11;4.27;;;2.20;;
4268;SDS011;2148;48.554;7.834;2023-11-21T02:04:37;3.17;;;2.13;;
4268;SDS011;2148;48.554;7.834;2023-11-21T02:07:03;5.07;;;2.30;;
4268;SDS011;2148;48.554;7.834;2023-11-21T02:09:31;3.77;;;1.90;;
4268;SDS011;2148;48.554;7.834;2023-11-21T02:12:00;3.70;;;2.13;;
4268;SDS011;2148;48.554;7.834;2023-11-21T02:14:26;3.57;;;2.30;;
4268;SDS011;2148;48.554;7.834;2023-11-21T02:16:52;2.83;;;2.07;;
4268;SDS011;2148;48.554;7.834;2023-11-21T02:19:19;4.93;;;2.27;;
4268;SDS011;2148;48.554;7.834;2023-11-21T02:21:47;6.10;;;3.00;;
4268;SDS011;2148;48.554;7.834;2023-11-21T02:24:20;3.83;;;2.10;;
4268;SDS011;2148;48.554;7.834;2023-11-21T02:26:46;9.10;;;2.60;;
4268;SDS011;2148;48.554;7.834;2023-11-21T02:29:11;4.80;;;2.17;;
4268;SDS011;2148;48.554;7.834;2023-11-21T02:31:38;2.40;;;1.93;;
4268;SDS011;2148;48.554;7.834;2023-11-21T02:34:12;5.27;;;2.40;;
4268;SDS011;2148;48.554;7.834;2023-11-21T02:36:41;6.43;;;3.23;;
4268;SDS011;2148;48.554;7.834;2023-11-21T02:39:07;5.87;;;2.30;;
4268;SDS011;2148;48.554;7.834;2023-11-21T02:41:33;3.80;;;2.00;;
4268;SDS011;2148;48.554;7.834;2023-11-21T02:43:59;5.10;;;2.33;;
4268;SDS011;2148;48.554;7.834;2023-11-21T02:46:25;4.33;;;2.00;;
4268;SDS011;2148;48.554;7.834;2023-11-21T02:48:50;6.40;;;2.20;;
4268;SDS011;2148;48.554;7.834;2023-11-21T02:51:16;6.13;;;2.17;;
4268;SDS011;2148;48.554;7.834;2023-11-21T02:53:41;3.33;;;1.97;;
4268;SDS011;2148;48.554;7.834;2023-11-21T02:56:06;2.93;;;2.00;;
4268;SDS011;2148;48.554;7.834;2023-11-21T02:58:32;3.93;;;2.33;;
4268;SDS011;2148;48.554;7.834;2023-11-21T03:00:57;4.37;;;1.97;;
4268;SDS011;2148;48.554;7.834;2023-11-21T03:03:22;2.37;;;2.07;;
4268;SDS011;2148;48.554;7.834;2023-11-21T03:05:49;2.90;;;2.27;;
4268;SDS011;2148;48.554;7.834;2023-11-21T03:08:14;4.47;;;2.23;;
4268;SDS011;2148;48.554;7.834;2023-11-21T03:10:40;4.93;;;2.43;;
4268;SDS011;2148;48.554;7.834;2023-11-21T03:13:05;2.93;;;2.00;;
4268;SDS011;2148;48.554;7.834;2023-11-21T03:15:30;6.23;;;2.23;;
4268;SDS011;2148;48.554;7.834;2023-11-21T03:17:57;4.80;;;2.10;;
4268;SDS011;2148;48.554;7.834;2023-11-21T03:20:22;4.10;;;2.17;;
4268;SDS011;2148;48.554;7.834;2023-11-21T03:22:48;3.60;;;2.50;;
4268;SDS011;2148;48.554;7.834;2023-11-21T03:25:13;4.90;;;2.17;;
4268;SDS011;2148;48.554;7.834;2023-11-21T03:27:40;4.50;;;2.43;;
4268;SDS011;2148;48.554;7.834;2023-11-21T03:30:07;4.40;;;2.30;;
4268;SDS011;2148;48.554;7.834;2023-11-21T03:32:34;4.23;;;3.07;;
4268;SDS011;2148;48.554;7.834;2023-11-21T03:34:59;5.93;;;2.17;;
4268;SDS011;2148;48.554;7.834;2023-11-21T03:37:25;4.80;;;2.57;;
4268;SDS011;2148;48.554;7.834;2023-11-21T03:39:51;4.30;;;2.60;;
4268;SDS011;2148;48.554;7.834;2023-11-21T03:42:16;2.77;;;2.07;;
4268;SDS011;2148;48.554;7.834;2023-11-21T03:44:42;4.57;;;2.40;;
4268;SDS011;2148;48.554;7.834;2023-11-21T03:47:07;4.93;;;2.30;;
4268;SDS011;2148;48.554;7.834;2023-11-21T03:49:32;4.47;;;2.23;;
4268;SDS011;2148;48.554;7.834;2023-11-21T03:51:57;4.53;;;2.37;;
4268;SDS011;2148;48.554;7.834;2023-11-21T03:54:23;4.40;;;2.00;;
4268;SDS011;2148;48.554;7.834;2023-11-21T03:56:48;5.23;;;2.40;;
4268;SDS011;2148;48.554;7.834;2023-11-21T03:59:13;4.47;;;2.63;;
4268;SDS011;2148;48.554;7.834;2023-11-21T04:01:39;3.60;;;2.50;;
4268;SDS011;2148;48.554;7.834;2023-11-21T04:04:04;6.30;;;3.20;;
4268;SDS011;2148;48.554;7.834;2023-11-21T04:06:29;4.23;;;2.10;;
4268;SDS011;2148;48.554;7.834;2023-11-21T04:08:55;4.73;;;2.53;;
4268;SDS011;2148;48.554;7.834;2023-11-21T04:11:20;5.10;;;2.60;;
4268;SDS011;2148;48.554;7.834;2023-11-21T04:13:45;3.60;;;2.37;;
4268;SDS011;2148;48.554;7.834;2023-11-21T04:16:11;3.40;;;2.13;;
4268;SDS011;2148;48.554;7.834;2023-11-21T04:18:37;2.43;;;2.00;;
4268;SDS011;2148;48.554;7.834;2023-11-21T04:21:04;2.73;;;2.20;;
4268;SDS011;2148;48.554;7.834;2023-11-21T04:23:30;3.40;;;2.23;;
4268;SDS011;2148;48.554;7.834;2023-11-21T04:25:56;2.93;;;2.10;;
4268;SDS011;2148;48.554;7.834;2023-11-21T04:28:22;3.03;;;2.30;;
4268;SDS011;2148;48.554;7.834;2023-11-21T04:30:49;5.40;;;2.20;;
4268;SDS011;2148;48.554;7.834;2023-11-21T04:33:14;4.00;;;2.10;;
4268;SDS011;2148;48.554;7.834;2023-11-21T04:35:39;4.63;;;2.87;;
4268;SDS011;2148;48.554;7.834;2023-11-21T04:38:04;3.93;;;2.30;;
4268;SDS011;2148;48.554;7.834;2023-11-21T04:40:30;4.07;;;2.27;;
4268;SDS011;2148;48.554;7.834;2023-11-21T04:42:55;5.40;;;2.60;;
4268;SDS011;2148;48.554;7.834;2023-11-21T04:45:22;3.27;;;2.30;;
4268;SDS011;2148;48.554;7.834;2023-11-21T04:47:47;3.83;;;1.97;;
4268;SDS011;2148;48.554;7.834;2023-11-21T04:50:12;5.70;;;2.57;;
4268;SDS011;2148;48.554;7.834;2023-11-21T04:52:37;3.53;;;2.23;;
4268;SDS011;2148;48.554;7.834;2023-11-21T04:55:03;2.63;;;1.90;;
4268;SDS011;2148;48.554;7.834;2023-11-21T04:57:28;2.60;;;2.00;;
4268;SDS011;2148;48.554;7.834;2023-11-21T04:59:54;2.80;;;2.00;;
4268;SDS011;2148;48.554;7.834;2023-11-21T05:02:19;3.20;;;2.00;;
4268;SDS011;2148;48.554;7.834;2023-11-21T05:04:46;3.03;;;1.90;;
4268;SDS011;2148;48.554;7.834;2023-11-21T05:07:11;5.50;;;2.50;;
4268;SDS011;2148;48.554;7.834;2023-11-21T05:09:40;2.57;;;2.17;;
4268;SDS011;2148;48.554;7.834;2023-11-21T05:12:06;3.60;;;2.07;;
4268;SDS011;2148;48.554;7.834;2023-11-21T05:14:32;2.47;;;1.97;;
4268;SDS011;2148;48.554;7.834;2023-11-21T05:16:57;4.00;;;1.90;;
4268;SDS011;2148;48.554;7.834;2023-11-21T05:19:24;4.20;;;1.97;;
4268;SDS011;2148;48.554;7.834;2023-11-21T05:21:49;2.93;;;2.00;;
4268;SDS011;2148;48.554;7.834;2023-11-21T05:24:14;3.43;;;1.80;;
4268;SDS011;2148;48.554;7.834;2023-11-21T05:26:40;3.30;;;1.93;;
4268;SDS011;2148;48.554;7.834;2023-11-21T05:29:05;3.40;;;2.00;;
4268;SDS011;2148;48.554;7.834;2023-11-21T05:31:31;4.00;;;2.13;;
4268;SDS011;2148;48.554;7.834;2023-11-21T05:33:56;4.77;;;1.93;;
4268;SDS011;2148;48.554;7.834;2023-11-21T05:36:22;3.30;;;2.00;;
4268;SDS011;2148;48.554;7.834;2023-11-21T05:38:47;3.93;;;1.80;;
4268;SDS011;2148;48.554;7.834;2023-11-21T05:41:12;3.23;;;1.77;;
4268;SDS011;2148;48.554;7.834;2023-11-21T05:43:38;2.53;;;1.70;;
4268;SDS011;2148;48.554;7.834;2023-11-21T05:46:04;3.00;;;1.70;;
4268;SDS011;2148;48.554;7.834;2023-11-21T05:48:31;3.87;;;1.90;;
4268;SDS011;2148;48.554;7.834;2023-11-21T05:50:57;3.03;;;1.70;;
4268;SDS011;2148;48.554;7.834;2023-11-21T05:53:22;2.57;;;1.90;;
4268;SDS011;2148;48.554;7.834;2023-11-21T05:55:47;2.00;;;1.80;;
4268;SDS011;2148;48.554;7.834;2023-11-21T05:58:12;5.07;;;1.50;;
4268;SDS011;2148;48.554;7.834;2023-11-21T06:00:38;1.70;;;1.60;;
4268;SDS011;2148;48.554;7.834;2023-11-21T06:03:04;1.90;;;1.73;;
4268;SDS011;2148;48.554;7.834;2023-11-21T06:05:31;2.70;;;1.77;;
4268;SDS011;2148;48.554;7.834;2023-11-21T06:07:58;1.60;;;1.50;;
4268;SDS011;2148;48.554;7.834;2023-11-21T06:10:24;4.30;;;1.90;;
4268;SDS011;2148;48.554;7.834;2023-11-21T06:12:49;2.13;;;1.93;;
4268;SDS011;2148;48.554;7.834;2023-11-21T06:15:15;3.27;;;2.00;;
4268;SDS011;2148;48.554;7.834;2023-11-21T06:17:41;2.13;;;1.63;;
4268;SDS011;2148;48.554;7.834;2023-11-21T06:20:08;4.30;;;2.00;;
4268;SDS011;2148;48.554;7.834;2023-11-21T06:22:36;1.97;;;1.77;;
4268;SDS011;2148;48.554;7.834;2023-11-21T06:25:05;2.57;;;1.80;;
4268;SDS011;2148;48.554;7.834;2023-11-21T06:27:31;2.93;;;2.30;;
4268;SDS011;2148;48.554;7.834;2023-11-21T06:29:58;4.30;;;2.20;;
4268;SDS011;2148;48.554;7.834;2023-11-21T06:32:23;3.00;;;2.20;;
4268;SDS011;2148;48.554;7.834;2023-11-21T06:34:48;4.80;;;2.10;;
4268;SDS011;2148;48.554;7.834;2023-11-21T06:37:14;5.33;;;2.30;;
4268;SDS011;2148;48.554;7.834;2023-11-21T06:39:40;2.93;;;2.20;;
4268;SDS011;2148;48.554;7.834;2023-11-21T06:42:05;4.00;;;2.10;;
4268;SDS011;2148;48.554;7.834;2023-11-21T06:44:30;2.30;;;2.10;;
4268;SDS011;2148;48.554;7.834;2023-11-21T06:46:56;4.23;;;2.50;;
4268;SDS011;2148;48.554;7.834;2023-11-21T06:49:21;3.83;;;2.13;;
4268;SDS011;2148;48.554;7.834;2023-11-21T06:51:46;3.27;;;2.30;;
4268;SDS011;2148;48.554;7.834;2023-11-21T06:54:12;3.03;;;2.27;;
4268;SDS011;2148;48.554;7.834;2023-11-21T06:56:38;3.50;;;2.20;;
4268;SDS011;2148;48.554;7.834;2023-11-21T06:59:04;4.53;;;2.60;;
4268;SDS011;2148;48.554;7.834;2023-11-21T07:01:30;2.77;;;2.00;;
4268;SDS011;2148;48.554;7.834;2023-11-21T07:03:58;2.27;;;2.00;;
4268;SDS011;2148;48.554;7.834;2023-11-21T07:06:23;5.33;;;2.23;;
4268;SDS011;2148;48.554;7.834;2023-11-21T07:08:48;2.73;;;2.20;;
4268;SDS011;2148;48.554;7.834;2023-11-21T07:11:13;3.73;;;2.30;;
4268;SDS011;2148;48.554;7.834;2023-11-21T07:13:39;4.60;;;2.20;;
4268;SDS011;2148;48.554;7.834;2023-11-21T07:16:04;2.80;;;2.27;;
4268;SDS011;2148;48.554;7.834;2023-11-21T07:18:30;2.40;;;2.10;;
4268;SDS011;2148;48.554;7.834;2023-11-21T07:20:55;2.93;;;2.33;;
4268;SDS011;2148;48.554;7.834;2023-11-21T07:23:20;3.73;;;2.27;;
4268;SDS011;2148;48.554;7.834;2023-11-21T07:25:47;2.90;;;2.20;;
4268;SDS011;2148;48.554;7.834;2023-11-21T07:28:12;2.93;;;2.47;;
4268;SDS011;2148;48.554;7.834;2023-11-21T07:30:38;2.43;;;2.20;;
4268;SDS011;2148;48.554;7.834;2023-11-21T07:33:03;3.77;;;2.33;;
4268;SDS011;2148;48.554;7.834;2023-11-21T07:35:28;6.13;;;2.60;;
4268;SDS011;2148;48.554;7.834;2023-11-21T07:37:53;3.67;;;2.60;;
4268;SDS011;2148;48.554;7.834;2023-11-21T07:40:19;4.10;;;2.40;;
4268;SDS011;2148;48.554;7.834;2023-11-21T07:42:44;3.37;;;2.50;;
4268;SDS011;2148;48.554;7.834;2023-11-21T07:45:09;4.37;;;2.50;;
4268;SDS011;2148;48.554;7.834;2023-11-21T07:47:34;2.67;;;2.47;;
4268;SDS011;2148;48.554;7.834;2023-11-21T07:50:00;3.73;;;2.10;;
4268;SDS011;2148;48.554;7.834;2023-11-21T07:52:28;2.73;;;2.43;;
4268;SDS011;2148;48.554;7.834;2023-11-21T07:54:53;3.57;;;2.40;;
4268;SDS011;2148;48.554;7.834;2023-11-21T07:57:18;2.93;;;2.50;;
4268;SDS011;2148;48.554;7.834;2023-11-21T07:59:43;3.30;;;3.00;;
4268;SDS011;2148;48.554;7.834;2023-11-21T08:02:09;3.70;;;2.50;;
4268;SDS011;2148;48.554;7.834;2023-11-21T08:04:34;3.57;;;2.50;;
4268;SDS011;2148;48.554;7.834;2023-11-21T08:07:00;3.23;;;2.40;;
4268;SDS011;2148;48.554;7.834;2023-11-21T08:09:26;3.50;;;2.50;;
4268;SDS011;2148;48.554;7.834;2023-11-21T08:11:52;3.07;;;2.53;;
4268;SDS011;2148;48.554;7.834;2023-11-21T08:14:17;2.67;;;2.47;;
4268;SDS011;2148;48.554;7.834;2023-11-21T08:16:43;2.77;;;2.50;;
4268;SDS011;2148;48.554;7.834;2023-11-21T08:19:09;2.90;;;2.50;;
4268;SDS011;2148;48.554;7.834;2023-11-21T08:21:34;2.67;;;2.33;;
4268;SDS011;2148;48.554;7.834;2023-11-21T08:24:01;3.03;;;2.60;;
4268;SDS011;2148;48.554;7.834;2023-11-21T08:26:29;2.97;;;2.37;;
4268;SDS011;2148;48.554;7.834;2023-11-21T08:28:54;2.93;;;2.63;;
4268;SDS011;2148;48.554;7.834;2023-11-21T08:31:27;3.23;;;2.57;;
4268;SDS011;2148;48.554;7.834;2023-11-21T08:33:52;2.90;;;2.70;;
4268;SDS011;2148;48.554;7.834;2023-11-21T08:36:21;4.80;;;2.67;;
4268;SDS011;2148;48.554;7.834;2023-11-21T08:38:49;4.50;;;3.10;;
4268;SDS011;2148;48.554;7.834;2023-11-21T08:41:14;4.23;;;2.70;;
4268;SDS011;2148;48.554;7.834;2023-11-21T08:43:41;2.93;;;2.60;;
4268;SDS011;2148;48.554;7.834;2023-11-21T08:46:07;4.00;;;2.90;;
4268;SDS011;2148;48.554;7.834;2023-11-21T08:48:34;3.17;;;2.87;;
4268;SDS011;2148;48.554;7.834;2023-11-21T08:51:01;3.70;;;2.83;;
4268;SDS011;2148;48.554;7.834;2023-11-21T08:53:26;4.13;;;3.10;;
4268;SDS011;2148;48.554;7.834;2023-11-21T08:55:51;3.93;;;3.20;;
4268;SDS011;2148;48.554;7.834;2023-11-21T08:58:18;3.57;;;3.27;;
4268;SDS011;2148;48.554;7.834;2023-11-21T09:00:44;3.60;;;3.00;;
4268;SDS011;2148;48.554;7.834;2023-11-21T09:03:11;3.27;;;2.70;;
4268;SDS011;2148;48.554;7.834;2023-11-21T09:05:40;3.23;;;2.97;;
4268;SDS011;2148;48.554;7.834;2023-11-21T09:08:05;4.67;;;3.30;;
4268;SDS011;2148;48.554;7.834;2023-11-21T09:10:31;3.23;;;2.93;;
4268;SDS011;2148;48.554;7.834;2023-11-21T09:13:00;3.77;;;3.10;;
4268;SDS011;2148;48.554;7.834;2023-11-21T09:15:25;4.40;;;3.20;;
4268;SDS011;2148;48.554;7.834;2023-11-21T09:17:51;3.97;;;3.10;;
4268;SDS011;2148;48.554;7.834;2023-11-21T09:20:16;3.60;;;3.30;;
4268;SDS011;2148;48.554;7.834;2023-11-21T09:22:42;3.50;;;3.20;;
4268;SDS011;2148;48.554;7.834;2023-11-21T09:25:09;3.93;;;3.60;;
4268;SDS011;2148;48.554;7.834;2023-11-21T09:27:35;4.40;;;4.00;;
4268;SDS011;2148;48.554;7.834;2023-11-21T09:30:00;4.50;;;4.10;;
4268;SDS011;2148;48.554;7.834;2023-11-21T09:32:26;4.77;;;4.30;;
4268;SDS011;2148;48.554;7.834;2023-11-21T09:34:51;8.97;;;8.00;;
4268;SDS011;2148;48.554;7.834;2023-11-21T09:37:17;13.80;;;11.70;;
4268;SDS011;2148;48.554;7.834;2023-11-21T09:39:44;7.60;;;6.17;;
4268;SDS011;2148;48.554;7.834;2023-11-21T09:42:10;6.27;;;5.33;;
4268;SDS011;2148;48.554;7.834;2023-11-21T09:44:44;4.73;;;4.23;;
4268;SDS011;2148;48.554;7.834;2023-11-21T09:47:14;5.30;;;4.50;;
4268;SDS011;2148;48.554;7.834;2023-11-21T09:49:41;6.87;;;5.93;;
4268;SDS011;2148;48.554;7.834;2023-11-21T09:52:06;8.80;;;7.93;;
4268;SDS011;2148;48.554;7.834;2023-11-21T09:54:34;5.33;;;4.83;;
4268;SDS011;2148;48.554;7.834;2023-11-21T09:57:00;5.63;;;5.13;;
4268;SDS011;2148;48.554;7.834;2023-11-21T09:59:25;4.63;;;4.20;;
4268;SDS011;2148;48.554;7.834;2023-11-21T10:01:55;5.63;;;4.60;;
4268;SDS011;2148;48.554;7.834;2023-11-21T10:04:23;4.80;;;4.40;;
4268;SDS011;2148;48.554;7.834;2023-11-21T10:06:48;5.40;;;4.90;;
4268;SDS011;2148;48.554;7.834;2023-11-21T10:09:14;5.03;;;4.47;;
4268;SDS011;2148;48.554;7.834;2023-11-21T10:11:41;8.03;;;5.53;;
4268;SDS011;2148;48.554;7.834;2023-11-21T10:14:08;7.20;;;5.00;;
4268;SDS011;2148;48.554;7.834;2023-11-21T10:16:38;5.13;;;4.70;;
4268;SDS011;2148;48.554;7.834;2023-11-21T10:19:04;8.90;;;5.07;;
4268;SDS011;2148;48.554;7.834;2023-11-21T10:21:31;5.20;;;4.70;;
4268;SDS011;2148;48.554;7.834;2023-11-21T10:23:58;5.47;;;4.47;;
4268;SDS011;2148;48.554;7.834;2023-11-21T10:26:23;5.50;;;5.00;;
4268;SDS011;2148;48.554;7.834;2023-11-21T10:28:58;6.00;;;5.40;;
4268;SDS011;2148;48.554;7.834;2023-11-21T10:31:26;5.20;;;4.67;;
4268;SDS011;2148;48.554;7.834;2023-11-21T10:33:52;5.20;;;4.70;;
4268;SDS011;2148;48.554;7.834;2023-11-21T10:36:24;5.17;;;4.30;;
4268;SDS011;2148;48.554;7.834;2023-11-21T10:38:53;4.47;;;3.90;;
4268;SDS011;2148;48.554;7.834;2023-11-21T10:41:18;6.93;;;4.30;;
4268;SDS011;2148;48.554;7.834;2023-11-21T10:43:44;4.97;;;4.37;;
4268;SDS011;2148;48.554;7.834;2023-11-21T10:46:10;5.23;;;4.73;;
4268;SDS011;2148;48.554;7.834;2023-11-21T10:48:35;4.40;;;4.00;;
4268;SDS011;2148;48.554;7.834;2023-11-21T10:51:01;4.37;;;3.77;;
4268;SDS011;2148;48.554;7.834;2023-11-21T10:53:32;4.30;;;3.93;;
4268;SDS011;2148;48.554;7.834;2023-11-21T10:56:05;5.00;;;3.83;;
4268;SDS011;2148;48.554;7.834;2023-11-21T10:58:32;4.13;;;3.73;;
4268;SDS011;2148;48.554;7.834;2023-11-21T11:00:58;4.20;;;3.70;;
4268;SDS011;2148;48.554;7.834;2023-11-21T11:03:24;3.00;;;2.70;;
4268;SDS011;2148;48.554;7.834;2023-11-21T11:05:50;3.63;;;3.10;;
4268;SDS011;2148;48.554;7.834;2023-11-21T11:08:16;3.33;;;2.80;;
4268;SDS011;2148;48.554;7.834;2023-11-21T11:10:45;2.80;;;2.30;;
4268;SDS011;2148;48.554;7.834;2023-11-21T11:13:12;2.50;;;2.30;;
4268;SDS011;2148;48.554;7.834;2023-11-21T11:15:39;2.13;;;2.03;;
4268;SDS011;2148;48.554;7.834;2023-11-21T11:18:05;3.10;;;2.00;;
4268;SDS011;2148;48.554;7.834;2023-11-21T11:20:35;2.43;;;2.07;;
4268;SDS011;2148;48.554;7.834;2023-11-21T11:23:28;2.13;;;1.90;;
4268;SDS011;2148;48.554;7.834;2023-11-21T11:26:24;2.17;;;2.00;;
4268;SDS011;2148;48.554;7.834;2023-11-21T11:28:57;1.87;;;1.77;;
4268;SDS011;2148;48.554;7.834;2023-11-21T11:34:32;2.07;;;1.97;;
4268;SDS011;2148;48.554;7.834;2023-11-21T11:37:00;2.37;;;2.17;;
4268;SDS011;2148;48.554;7.834;2023-11-21T11:39:28;2.40;;;2.20;;
4268;SDS011;2148;48.554;7.834;2023-11-21T11:42:01;2.93;;;2.60;;
4268;SDS011;2148;48.554;7.834;2023-11-21T11:47:16;3.23;;;2.93;;
4268;SDS011;2148;48.554;7.834;2023-11-21T11:52:48;4.77;;;2.93;;
4268;SDS011;2148;48.554;7.834;2023-11-21T11:55:17;2.80;;;2.57;;
4268;SDS011;2148;48.554;7.834;2023-11-21T11:57:43;3.10;;;2.90;;
4268;SDS011;2148;48.554;7.834;2023-11-21T12:00:13;4.70;;;4.30;;
4268;SDS011;2148;48.554;7.834;2023-11-21T12:02:50;3.97;;;3.30;;
4268;SDS011;2148;48.554;7.834;2023-11-21T12:05:17;3.40;;;3.10;;
4268;SDS011;2148;48.554;7.834;2023-11-21T12:07:53;3.33;;;2.80;;
4268;SDS011;2148;48.554;7.834;2023-11-21T12:10:20;3.40;;;3.10;;
4268;SDS011;2148;48.554;7.834;2023-11-21T12:12:48;2.53;;;2.33;;
4268;SDS011;2148;48.554;7.834;2023-11-21T12:15:14;3.03;;;2.77;;
4268;SDS011;2148;48.554;7.834;2023-11-21T12:17:41;5.40;;;4.87;;
4268;SDS011;2148;48.554;7.834;2023-11-21T12:20:07;5.53;;;4.90;;
4268;SDS011;2148;48.554;7.834;2023-11-21T12:22:40;4.63;;;3.30;;
4268;SDS011;2148;48.554;7.834;2023-11-21T12:25:07;3.20;;;2.90;;
4268;SDS011;2148;48.554;7.834;2023-11-21T12:27:33;3.40;;;3.10;;
4268;SDS011;2148;48.554;7.834;2023-11-21T12:29:58;3.40;;;2.80;;
4268;SDS011;2148;48.554;7.834;2023-11-21T12:32:24;3.37;;;3.17;;
4268;SDS011;2148;48.554;7.834;2023-11-21T12:34:50;3.20;;;2.90;;
4268;SDS011;2148;48.554;7.834;2023-11-21T12:37:16;4.17;;;3.57;;
4268;SDS011;2148;48.554;7.834;2023-11-21T12:39:42;4.03;;;3.63;;
4268;SDS011;2148;48.554;7.834;2023-11-21T12:42:07;3.33;;;3.03;;
4268;SDS011;2148;48.554;7.834;2023-11-21T12:44:32;2.97;;;2.77;;
4268;SDS011;2148;48.554;7.834;2023-11-21T12:46:58;3.03;;;2.70;;
4268;SDS011;2148;48.554;7.834;2023-11-21T12:49:24;3.13;;;2.87;;
4268;SDS011;2148;48.554;7.834;2023-11-21T12:56:59;3.03;;;2.83;;
4268;SDS011;2148;48.554;7.834;2023-11-21T12:59:25;3.30;;;3.03;;
4268;SDS011;2148;48.554;7.834;2023-11-21T13:01:50;4.40;;;4.00;;
4268;SDS011;2148;48.554;7.834;2023-11-21T13:04:16;3.90;;;3.60;;
4268;SDS011;2148;48.554;7.834;2023-11-21T13:06:43;6.23;;;3.07;;
4268;SDS011;2148;48.554;7.834;2023-11-21T13:09:08;3.80;;;3.07;;
4268;SDS011;2148;48.554;7.834;2023-11-21T13:11:39;3.40;;;3.10;;
4268;SDS011;2148;48.554;7.834;2023-11-21T13:14:06;4.93;;;3.77;;
4268;SDS011;2148;48.554;7.834;2023-11-21T13:16:31;4.80;;;3.83;;
4268;SDS011;2148;48.554;7.834;2023-11-21T13:18:56;3.83;;;3.30;;
4268;SDS011;2148;48.554;7.834;2023-11-21T13:21:22;3.10;;;2.80;;
4268;SDS011;2148;48.554;7.834;2023-11-21T13:23:47;2.67;;;2.47;;
4268;SDS011;2148;48.554;7.834;2023-11-21T13:26:13;2.90;;;2.60;;
4268;SDS011;2148;48.554;7.834;2023-11-21T13:28:40;2.50;;;2.30;;
4268;SDS011;2148;48.554;7.834;2023-11-21T13:31:07;3.00;;;2.70;;
4268;SDS011;2148;48.554;7.834;2023-11-21T13:33:46;3.63;;;3.27;;
4268;SDS011;2148;48.554;7.834;2023-11-21T13:36:19;3.17;;;2.87;;
4268;SDS011;2148;48.554;7.834;2023-11-21T13:38:47;3.50;;;2.47;;
4268;SDS011;2148;48.554;7.834;2023-11-21T13:41:13;4.47;;;3.90;;
4268;SDS011;2148;48.554;7.834;2023-11-21T13:43:39;3.77;;;3.20;;
4268;SDS011;2148;48.554;7.834;2023-11-21T13:46:04;4.10;;;2.63;;
4268;SDS011;2148;48.554;7.834;2023-11-21T13:48:38;5.40;;;3.40;;
4268;SDS011;2148;48.554;7.834;2023-11-21T13:51:08;4.23;;;3.40;;
4268;SDS011;2148;48.554;7.834;2023-11-21T13:53:41;4.90;;;4.40;;
4268;SDS011;2148;48.554;7.834;2023-11-21T13:56:07;2.70;;;2.50;;
4268;SDS011;2148;48.554;7.834;2023-11-21T13:58:33;3.07;;;2.40;;
4268;SDS011;2148;48.554;7.834;2023-11-21T14:01:17;2.23;;;2.13;;
4268;SDS011;2148;48.554;7.834;2023-11-21T14:06:27;2.30;;;2.10;;
4268;SDS011;2148;48.554;7.834;2023-11-21T14:08:59;2.60;;;1.80;;
4268;SDS011;2148;48.554;7.834;2023-11-21T14:11:30;8.70;;;3.30;;
4268;SDS011;2148;48.554;7.834;2023-11-21T14:13:55;2.20;;;2.00;;
4268;SDS011;2148;48.554;7.834;2023-11-21T14:16:21;2.43;;;2.20;;
4268;SDS011;2148;48.554;7.834;2023-11-21T14:18:46;3.93;;;2.20;;
4268;SDS011;2148;48.554;7.834;2023-11-21T14:21:26;2.50;;;2.00;;
4268;SDS011;2148;48.554;7.834;2023-11-21T14:23:52;2.20;;;2.00;;
4268;SDS011;2148;48.554;7.834;2023-11-21T14:26:19;2.47;;;2.10;;
4268;SDS011;2148;48.554;7.834;2023-11-21T14:28:45;2.13;;;2.03;;
4268;SDS011;2148;48.554;7.834;2023-11-21T14:31:13;2.97;;;2.73;;
4268;SDS011;2148;48.554;7.834;2023-11-21T14:33:40;2.50;;;2.30;;
4268;SDS011;2148;48.554;7.834;2023-11-21T14:36:06;2.57;;;2.37;;
4268;SDS011;2148;48.554;7.834;2023-11-21T14:38:34;3.53;;;2.70;;
4268;SDS011;2148;48.554;7.834;2023-11-21T14:41:00;3.10;;;2.80;;
4268;SDS011;2148;48.554;7.834;2023-11-21T14:43:25;2.90;;;2.53;;
4268;SDS011;2148;48.554;7.834;2023-11-21T14:45:54;2.53;;;2.33;;
4268;SDS011;2148;48.554;7.834;2023-11-21T14:48:21;2.80;;;2.60;;
4268;SDS011;2148;48.554;7.834;2023-11-21T14:51:04;3.37;;;3.07;;
4268;SDS011;2148;48.554;7.834;2023-11-21T14:53:30;6.80;;;4.33;;
4268;SDS011;2148;48.554;7.834;2023-11-21T14:56:15;4.23;;;3.83;;
4268;SDS011;2148;48.554;7.834;2023-11-21T14:58:50;6.60;;;4.07;;
4268;SDS011;2148;48.554;7.834;2023-11-21T15:01:15;5.10;;;4.60;;
4268;SDS011;2148;48.554;7.834;2023-11-21T15:03:49;6.03;;;4.23;;
4268;SDS011;2148;48.554;7.834;2023-11-21T15:06:15;5.53;;;4.30;;
4268;SDS011;2148;48.554;7.834;2023-11-21T15:08:51;4.23;;;3.50;;
4268;SDS011;2148;48.554;7.834;2023-11-21T15:11:43;3.60;;;3.30;;
4268;SDS011;2148;48.554;7.834;2023-11-21T15:14:08;3.23;;;3.00;;
4268;SDS011;2148;48.554;7.834;2023-11-21T15:16:37;3.90;;;3.07;;
4268;SDS011;2148;48.554;7.834;2023-11-21T15:19:08;2.97;;;2.73;;
4268;SDS011;2148;48.554;7.834;2023-11-21T15:21:35;8.40;;;5.93;;
4268;SDS011;2148;48.554;7.834;2023-11-21T15:24:01;7.10;;;4.70;;
4268;SDS011;2148;48.554;7.834;2023-11-21T15:26:26;4.83;;;3.57;;
4268;SDS011;2148;48.554;7.834;2023-11-21T15:28:51;3.37;;;2.90;;